Time;durP1;ratioP1;P1;durP2;ratioP2;P2;SDS_P1;SDS_P2;PMS_P1;PMS_P2;Temp;Humidity;BMP_temperature;BMP_pressure;BME280_temperature;BME280_humidity;BME280_pressure;Samples;Min_cycle;Max_cycle;Signal;HPM_P1;HPM_P2
2021/12/26 00:00:54;;;;;;;4.97;3.00;;;-1.90;61.30;;;0.98;50.29;101341.03;4863595;29;20199;-63
2021/12/26 00:03:23;;;;;;;4.67;2.80;;;-1.90;61.10;;;1.02;50.09;101329.56;4863317;29;20345;-60
2021/12/26 00:05:53;;;;;;;6.13;3.00;;;-1.80;60.80;;;1.05;50.14;101331.91;4863597;29;20244;-64
2021/12/26 00:08:23;;;;;;;5.50;3.20;;;-1.80;60.60;;;1.04;49.35;101325.94;4863258;29;20201;-62
2021/12/26 00:10:51;;;;;;;5.10;2.93;;;-1.80;60.10;;;1.02;49.87;101338.13;4863758;29;20226;-63
2021/12/26 00:13:20;;;;;;;5.60;3.13;;;-1.80;60.00;;;1.00;49.43;101334.81;4863128;29;20216;-63
2021/12/26 00:15:48;;;;;;;4.17;3.17;;;-1.90;59.80;;;0.97;50.00;101329.84;4862367;29;20313;-62
2021/12/26 00:18:16;;;;;;;8.80;3.10;;;-1.90;59.80;;;0.95;49.17;101331.69;4863389;29;20202;-63
2021/12/26 00:20:45;;;;;;;6.77;3.27;;;-2.00;59.80;;;0.92;49.28;101337.09;4863766;29;20225;-63
2021/12/26 00:23:14;;;;;;;5.43;3.47;;;-2.00;60.30;;;0.90;50.35;101328.59;4862395;29;20232;-62
2021/12/26 00:25:44;;;;;;;5.10;3.00;;;-2.00;60.10;;;0.89;49.47;101329.50;4862457;29;20195;-61
2021/12/26 00:28:11;;;;;;;4.37;2.77;;;-2.00;61.10;;;0.89;49.38;101326.06;4862990;29;20190;-63
2021/12/26 00:30:42;;;;;;;4.73;2.70;;;-2.00;60.10;;;0.86;49.35;101327.09;4863209;29;20272;-61
2021/12/26 00:33:10;;;;;;;4.47;2.60;;;-2.00;60.10;;;0.81;49.44;101328.34;4862566;29;20221;-62
2021/12/26 00:35:37;;;;;;;4.47;2.83;;;-2.10;59.90;;;0.75;49.97;101324.38;4863190;29;20514;-64
2021/12/26 00:38:05;;;;;;;4.93;2.80;;;-2.10;59.90;;;0.71;50.35;101320.31;4862364;29;20195;-63
2021/12/26 00:40:32;;;;;;;5.27;2.93;;;-2.20;60.60;;;0.72;50.30;101324.56;4863171;29;20676;-62
2021/12/26 00:43:01;;;;;;;5.07;2.77;;;-2.10;61.00;;;0.75;50.80;101324.38;4862655;29;20700;-62
2021/12/26 00:45:28;;;;;;;5.43;2.63;;;-2.10;60.70;;;0.75;49.77;101319.19;4863105;29;20273;-63
2021/12/26 00:47:56;;;;;;;4.43;2.47;;;-2.10;60.50;;;0.73;50.18;101323.66;4862605;29;20205;-61
2021/12/26 00:50:30;;;;;;;2.83;2.30;;;-2.10;60.40;;;0.70;50.48;101321.25;4863070;29;20232;-60
2021/12/26 00:52:58;;;;;;;4.83;2.67;;;-2.20;60.20;;;0.68;49.71;101323.09;4862533;29;20228;-62
2021/12/26 00:55:28;;;;;;;8.23;3.17;;;-2.20;60.10;;;0.64;49.48;101319.84;4863431;29;20664;-63
2021/12/26 00:57:56;;;;;;;5.43;3.13;;;-2.20;60.00;;;0.62;49.31;101315.69;4863047;29;20564;-60
2021/12/26 01:00:28;;;;;;;5.03;3.03;;;-2.30;60.10;;;0.60;50.36;101307.19;4863300;29;20252;-64
2021/12/26 01:03:00;;;;;;;3.97;2.90;;;-2.30;60.30;;;0.60;50.77;101314.97;4862288;29;20563;-62
2021/12/26 01:05:29;;;;;;;5.03;3.10;;;-2.30;60.50;;;0.57;50.66;101310.00;4863675;29;20283;-63
2021/12/26 01:07:59;;;;;;;5.70;3.20;;;-2.30;60.40;;;0.55;50.09;101314.44;4863093;29;20196;-61
2021/12/26 01:10:33;;;;;;;5.67;3.33;;;-2.30;60.40;;;0.52;50.40;101319.81;4862971;29;20205;-62
2021/12/26 01:13:12;;;;;;;4.17;2.90;;;-2.40;60.30;;;0.50;49.70;101314.72;4862371;29;20221;-61
2021/12/26 01:15:42;;;;;;;6.73;3.60;;;-2.40;60.30;;;0.45;49.56;101309.00;4862549;29;20226;-63
2021/12/26 01:18:10;;;;;;;5.50;3.33;;;-2.40;60.30;;;0.42;49.61;101313.56;4861779;29;20197;-66
2021/12/26 01:20:55;;;;;;;6.83;3.90;;;-2.50;60.50;;;0.39;50.80;101308.56;4862250;29;20223;-59
2021/12/26 01:23:26;;;;;;;6.80;3.10;;;-2.50;60.90;;;0.36;49.98;101306.16;4861891;29;20229;-62
2021/12/26 01:25:54;;;;;;;4.47;2.60;;;-2.50;61.10;;;0.38;50.64;101309.50;4862556;29;20277;-60
2021/12/26 01:28:28;;;;;;;4.00;3.00;;;-2.50;61.00;;;0.38;50.86;101315.47;4862917;29;20672;-62
2021/12/26 01:30:58;;;;;;;6.00;3.40;;;-2.50;60.70;;;0.38;50.36;101314.69;4862488;29;20568;-62
2021/12/26 01:33:27;;;;;;;4.40;2.70;;;-2.50;60.50;;;0.38;49.59;101304.31;4861761;29;20225;-62
2021/12/26 01:35:54;;;;;;;5.70;3.07;;;-2.50;60.30;;;0.35;50.34;101314.84;4861396;29;20217;-63
2021/12/26 01:38:23;;;;;;;5.87;3.47;;;-2.60;60.20;;;0.33;50.22;101314.13;4862179;29;20561;-63
2021/12/26 01:40:56;;;;;;;5.73;3.27;;;-2.60;60.30;;;0.28;49.85;101323.94;4860970;29;20684;-63
2021/12/26 01:43:29;;;;;;;5.00;3.03;;;-2.60;60.20;;;0.23;49.89;101320.78;4861245;29;20222;-63
2021/12/26 01:45:58;;;;;;;4.73;2.73;;;-2.70;60.20;;;0.19;50.22;101324.50;4861803;29;20182;-63
2021/12/26 01:48:26;;;;;;;4.93;3.00;;;-2.70;60.40;;;0.16;49.71;101316.91;4861628;29;20748;-64
2021/12/26 01:50:54;;;;;;;4.93;3.40;;;-2.80;60.50;;;0.16;50.34;101319.50;4861188;29;20259;-63
2021/12/26 01:53:25;;;;;;;3.73;2.90;;;-2.80;60.60;;;0.13;50.78;101317.09;4861557;29;20249;-64
2021/12/26 01:55:54;;;;;;;5.40;3.07;;;-2.80;60.50;;;0.09;50.07;101323.38;4860230;29;20269;-63
2021/12/26 01:58:26;;;;;;;4.63;2.60;;;-2.80;60.50;;;0.03;49.85;101315.97;4861631;29;20559;-63
2021/12/26 02:01:00;;;;;;;4.60;3.00;;;-2.90;60.60;;;-0.01;50.37;101310.19;4861366;29;20224;-63
2021/12/26 02:03:28;;;;;;;4.20;3.33;;;-2.90;60.60;;;-0.04;50.75;101307.78;4861264;29;20212;-64
2021/12/26 02:05:56;;;;;;;4.37;2.80;;;-2.90;60.70;;;-0.06;51.07;101302.69;4861440;29;20671;-64
2021/12/26 02:08:24;;;;;;;4.67;2.90;;;-3.00;60.90;;;-0.07;50.22;101303.63;4861043;29;20204;-61
2021/12/26 02:10:51;;;;;;;5.53;3.23;;;-2.90;61.20;;;-0.05;50.39;101306.94;4861422;29;20689;-64
2021/12/26 02:13:19;;;;;;;4.83;2.83;;;-2.90;61.60;;;-0.01;50.54;101298.09;4861555;29;20222;-66
2021/12/26 02:15:50;;;;;;;4.67;2.87;;;-2.90;61.20;;;0.02;51.05;101296.22;4861466;29;20619;-63
2021/12/26 02:18:20;;;;;;;6.73;3.40;;;-2.90;61.10;;;0.03;50.08;101295.28;4861271;29;20617;-62
2021/12/26 02:21:14;;;;;;;6.87;2.93;;;-2.90;61.10;;;0.04;50.01;101289.19;4861102;29;20218;-60
2021/12/26 02:23:55;;;;;;;4.67;2.80;;;-2.80;60.90;;;0.04;50.09;101294.38;4860217;29;20221;-63
2021/12/26 02:29:08;;;;;;;6.40;3.30;;;-2.80;61.30;;;0.11;50.92;101283.56;4861023;29;20647;-61
2021/12/26 02:31:36;;;;;;;4.87;2.97;;;-2.70;61.10;;;0.18;50.11;101287.44;4861796;29;20672;-63
2021/12/26 02:34:03;;;;;;;3.77;2.40;;;-2.60;60.90;;;0.26;50.35;101276.63;4860368;29;20224;-64
2021/12/26 02:36:32;;;;;;;4.77;3.33;;;-2.50;60.60;;;0.33;49.79;101268.38;4860856;29;20199;-65
2021/12/26 02:39:00;;;;;;;5.27;3.37;;;-2.50;60.40;;;0.39;50.38;101274.91;4859784;29;20220;-63
2021/12/26 02:41:27;;;;;;;5.00;2.63;;;-2.40;60.20;;;0.45;50.50;101274.53;4860549;29;20229;-65
2021/12/26 02:43:54;;;;;;;4.17;2.80;;;-2.30;59.90;;;0.52;50.04;101276.63;4860760;29;20224;-64
2021/12/26 02:46:22;;;;;;;4.63;2.90;;;-2.20;59.80;;;0.58;49.97;101273.66;4861034;29;20207;-64
2021/12/26 02:48:49;;;;;;;3.80;2.70;;;-2.20;59.20;;;0.61;49.93;101270.88;4860834;29;20216;-63
2021/12/26 02:51:16;;;;;;;3.57;2.87;;;-2.10;58.90;;;0.63;49.57;101273.34;4861086;29;20201;-64
2021/12/26 02:53:48;;;;;;;3.60;2.63;;;-2.10;58.80;;;0.62;49.37;101274.28;4864245;29;20224;-63
2021/12/26 02:56:18;;;;;;;3.10;2.40;;;-2.20;58.50;;;0.61;48.36;101267.44;4864760;29;20209;-63
2021/12/26 02:58:46;;;;;;;6.00;3.00;;;-2.10;58.70;;;0.60;49.13;101260.59;4863653;29;20201;-63
2021/12/26 03:01:19;;;;;;;4.93;2.87;;;-2.10;58.20;;;0.56;48.69;101261.72;4865124;29;20232;-64
2021/12/26 03:03:47;;;;;;;6.00;3.07;;;-2.20;58.20;;;0.57;49.03;101263.41;4864623;29;20221;-61
2021/12/26 03:06:24;;;;;;;3.17;2.33;;;-2.20;58.40;;;0.59;48.41;101266.72;4866027;29;20268;-60
2021/12/26 03:08:54;;;;;;;4.87;2.73;;;-2.20;58.10;;;0.58;48.58;101255.53;4867813;29;20259;-62
2021/12/26 03:11:23;;;;;;;3.67;2.60;;;-2.20;58.20;;;0.60;48.73;101258.00;4866972;29;20197;-60
2021/12/26 03:13:50;;;;;;;5.93;2.43;;;-2.10;58.20;;;0.61;47.95;101251.91;4864671;29;20221;-63
2021/12/26 03:16:17;;;;;;;4.30;2.43;;;-2.10;58.00;;;0.58;48.89;101254.69;4866563;29;20688;-63
2021/12/26 03:18:46;;;;;;;5.03;2.73;;;-2.20;57.50;;;0.51;48.68;101254.25;4870040;29;20233;-60
2021/12/26 03:21:13;;;;;;;2.43;2.20;;;-2.30;57.30;;;0.45;48.55;101262.41;4869651;29;20710;-63
2021/12/26 03:23:41;;;;;;;3.67;2.67;;;-2.30;57.50;;;0.36;48.12;101255.22;4863568;29;20233;-61
2021/12/26 03:26:09;;;;;;;3.63;2.77;;;-2.50;57.70;;;0.27;48.37;101250.63;4863810;29;20662;-63
2021/12/26 03:28:37;;;;;;;5.50;2.70;;;-2.60;58.20;;;0.23;48.68;101253.50;4862869;29;20566;-62
2021/12/26 03:31:05;;;;;;;3.63;2.70;;;-2.60;58.60;;;0.22;48.69;101249.25;4863468;29;20281;-63
2021/12/26 03:33:33;;;;;;;4.77;2.50;;;-2.60;58.50;;;0.22;48.57;101246.66;4863437;29;20688;-62
2021/12/26 03:36:00;;;;;;;2.90;2.27;;;-2.60;58.50;;;0.21;48.73;101250.19;4863968;29;20697;-64
2021/12/26 03:38:29;;;;;;;5.90;3.00;;;-2.60;58.60;;;0.24;49.16;101239.66;4863824;29;20198;-63
2021/12/26 03:40:57;;;;;;;7.23;2.70;;;-2.60;58.20;;;0.21;48.50;101239.84;4863751;29;20659;-64
2021/12/26 03:43:26;;;;;;;5.53;2.70;;;-2.60;57.90;;;0.17;48.26;101238.38;4863270;29;20704;-63
2021/12/26 03:45:55;;;;;;;4.00;2.47;;;-2.60;57.90;;;0.11;48.12;101249.09;4863280;29;20666;-64
2021/12/26 03:48:25;;;;;;;3.17;2.50;;;-2.70;57.80;;;0.05;48.50;101239.13;4863308;29;20198;-63
2021/12/26 03:50:54;;;;;;;4.97;2.90;;;-2.80;57.70;;;-0.02;48.05;101247.25;4863445;29;20655;-63
2021/12/26 03:53:22;;;;;;;6.27;2.50;;;-2.90;57.70;;;-0.08;48.54;101255.41;4863053;29;20221;-63
2021/12/26 03:55:49;;;;;;;5.43;2.77;;;-3.00;57.90;;;-0.14;48.69;101237.66;4863368;29;20205;-64
2021/12/26 03:58:18;;;;;;;6.07;2.70;;;-3.00;58.30;;;-0.19;48.30;101237.13;4863565;29;20198;-63
2021/12/26 04:00:49;;;;;;;4.07;2.80;;;-3.10;58.20;;;-0.24;49.40;101244.31;4863558;29;20212;-63
2021/12/26 04:03:16;;;;;;;3.77;3.00;;;-3.10;58.60;;;-0.27;49.63;101238.53;4862104;29;20322;-62
2021/12/26 04:05:44;;;;;;;6.90;2.83;;;-3.10;58.90;;;-0.26;48.86;101235.81;4863045;29;20550;-64
2021/12/26 04:08:11;;;;;;;6.07;3.20;;;-3.10;58.70;;;-0.25;48.83;101237.50;4863278;29;20659;-63
2021/12/26 04:10:39;;;;;;;3.87;2.60;;;-3.10;58.70;;;-0.25;48.87;101232.34;4863192;29;20190;-62
2021/12/26 04:13:07;;;;;;;3.80;2.33;;;-3.10;58.60;;;-0.22;49.51;101231.31;4862682;29;20209;-64
2021/12/26 04:15:34;;;;;;;6.67;3.20;;;-3.10;58.70;;;-0.19;49.55;101231.94;4862986;29;20217;-64
2021/12/26 04:18:04;;;;;;;4.23;3.17;;;-3.00;58.80;;;-0.14;49.30;101229.91;4863276;29;20715;-63
2021/12/26 04:20:31;;;;;;;6.50;3.93;;;-3.00;58.60;;;-0.09;49.50;101227.88;4862983;29;20257;-61
2021/12/26 04:22:59;;;;;;;5.53;3.30;;;-2.90;58.60;;;0.02;49.12;101228.97;4862253;29;20229;-65
2021/12/26 04:25:27;;;;;;;7.70;4.03;;;-2.80;58.50;;;0.11;49.12;101234.41;4862892;29;20560;-63
2021/12/26 04:27:56;;;;;;;4.10;2.90;;;-2.70;58.10;;;0.14;47.59;101229.06;4863018;29;20204;-63
2021/12/26 04:30:25;;;;;;;4.90;3.10;;;-2.60;57.70;;;0.19;48.83;101221.81;4863244;29;20201;-63
2021/12/26 04:32:52;;;;;;;4.30;2.87;;;-2.60;57.70;;;0.25;48.26;101230.94;4862305;29;20217;-64
2021/12/26 04:35:22;;;;;;;5.23;2.80;;;-2.50;57.50;;;0.28;47.54;101235.94;4862493;29;20240;-62
2021/12/26 04:37:49;;;;;;;5.20;3.10;;;-2.50;57.10;;;0.30;47.74;101231.50;4862686;29;20206;-65
2021/12/26 04:40:18;;;;;;;3.33;2.33;;;-2.40;57.10;;;0.34;47.61;101233.78;4862603;29;20210;-66
2021/12/26 04:42:46;;;;;;;4.27;2.87;;;-2.40;56.80;;;0.36;47.79;101228.50;4861162;29;20218;-63
2021/12/26 04:45:15;;;;;;;2.97;2.57;;;-2.40;56.70;;;0.37;47.00;101231.00;4862634;29;20595;-64
2021/12/26 04:47:44;;;;;;;5.67;3.37;;;-2.30;56.60;;;0.41;47.16;101241.97;4862365;29;20198;-63
2021/12/26 04:50:17;;;;;;;5.53;3.10;;;-2.30;56.50;;;0.43;47.71;101250.47;4862881;29;20265;-63
2021/12/26 04:52:47;;;;;;;3.10;2.70;;;-2.30;56.10;;;0.43;46.46;101245.31;4862021;29;20224;-63
2021/12/26 04:55:18;;;;;;;6.90;2.90;;;-2.30;56.00;;;0.43;46.67;101240.13;4862216;29;20688;-60
2021/12/26 04:57:46;;;;;;;4.07;2.77;;;-2.30;55.90;;;0.42;46.94;101238.47;4862342;29;20199;-63
2021/12/26 05:00:18;;;;;;;4.87;2.83;;;-2.30;55.80;;;0.39;47.50;101221.38;4862266;29;20562;-63
2021/12/26 05:02:46;;;;;;;5.03;2.53;;;-2.30;55.90;;;0.40;46.83;101219.63;4862046;29;20221;-64
2021/12/26 05:05:14;;;;;;;3.83;2.97;;;-2.30;55.90;;;0.42;46.82;101222.94;4862164;29;20193;-64
2021/12/26 05:07:42;;;;;;;4.10;3.33;;;-2.30;55.40;;;0.38;46.79;101229.25;4861717;29;20201;-63
2021/12/26 05:10:17;;;;;;;3.70;3.00;;;-2.40;55.40;;;0.35;46.26;101237.22;4862629;29;20690;-64
2021/12/26 05:12:45;;;;;;;3.40;2.40;;;-2.40;55.30;;;0.34;46.24;101235.53;4861547;29;20313;-64
2021/12/26 05:15:16;;;;;;;6.00;3.13;;;-2.50;55.20;;;0.27;46.15;101229.09;4862096;29;20221;-60
2021/12/26 05:17:45;;;;;;;3.67;2.60;;;-2.50;55.40;;;0.25;46.34;101226.59;4862089;29;20737;-63
2021/12/26 05:20:13;;;;;;;3.43;2.77;;;-2.50;55.40;;;0.23;47.04;101235.41;4861838;29;20194;-62
2021/12/26 05:22:41;;;;;;;4.47;2.97;;;-2.50;55.50;;;0.23;46.50;101232.81;4861033;29;20301;-62
2021/12/26 05:25:11;;;;;;;4.93;2.97;;;-2.50;55.60;;;0.26;47.19;101235.22;4861344;29;20234;-63
2021/12/26 05:27:39;;;;;;;5.13;3.63;;;-2.50;55.60;;;0.27;46.43;101229.09;4861620;29;20209;-63
2021/12/26 05:30:11;;;;;;;5.30;3.03;;;-2.50;55.60;;;0.31;45.80;101225.41;4861524;29;20656;-63
2021/12/26 05:32:39;;;;;;;3.27;2.30;;;-2.40;55.40;;;0.31;46.17;101221.03;4861244;29;20194;-61
2021/12/26 05:35:09;;;;;;;3.57;2.47;;;-2.40;55.00;;;0.31;46.06;101226.22;4861535;29;20200;-63
2021/12/26 05:37:37;;;;;;;3.13;2.57;;;-2.40;54.90;;;0.31;46.38;101230.56;4861773;29;20202;-64
2021/12/26 05:40:09;;;;;;;5.23;2.70;;;-2.40;54.90;;;0.29;45.39;101227.22;4861339;29;20199;-63
2021/12/26 05:42:38;;;;;;;5.87;2.60;;;-2.50;54.80;;;0.25;46.54;101225.78;4860152;29;20219;-61
2021/12/26 05:45:10;;;;;;;4.50;2.67;;;-2.50;54.60;;;0.23;45.42;101227.63;4861224;29;20556;-64
2021/12/26 05:47:38;;;;;;;4.67;3.10;;;-2.60;54.70;;;0.19;46.65;101215.81;4861290;29;20209;-62
2021/12/26 05:50:09;;;;;;;4.47;3.17;;;-2.60;54.70;;;0.16;46.58;101216.00;4861343;29;20198;-63
2021/12/26 05:52:36;;;;;;;5.07;2.70;;;-2.60;55.00;;;0.17;45.97;101208.13;4860932;29;20289;-63
2021/12/26 05:55:05;;;;;;;4.70;2.60;;;-2.60;54.90;;;0.18;45.95;101215.00;4861172;29;20195;-64
2021/12/26 05:57:32;;;;;;;5.30;2.90;;;-2.60;54.90;;;0.20;45.91;101204.53;4860800;29;20208;-62
2021/12/26 06:00:02;;;;;;;3.07;2.40;;;-2.60;54.80;;;0.19;46.23;101203.69;4861090;29;20201;-64
2021/12/26 06:02:29;;;;;;;3.70;2.83;;;-2.60;54.70;;;0.18;45.13;101196.03;4858967;29;20232;-65
2021/12/26 06:04:57;;;;;;;3.87;3.07;;;-2.60;54.50;;;0.15;45.21;101193.63;4861216;29;20242;-62
2021/12/26 06:07:24;;;;;;;4.80;2.63;;;-2.60;54.50;;;0.12;45.16;101191.25;4861154;29;20667;-63
2021/12/26 06:09:52;;;;;;;5.10;2.50;;;-2.60;54.60;;;0.14;46.22;101194.56;4861234;29;20199;-62
2021/12/26 06:12:19;;;;;;;3.93;3.03;;;-2.60;54.70;;;0.15;46.25;101193.63;4861013;29;20200;-65
2021/12/26 06:14:47;;;;;;;5.40;2.73;;;-2.60;54.50;;;0.18;46.00;101201.22;4860928;29;20691;-64
2021/12/26 06:17:15;;;;;;;5.23;2.30;;;-2.60;54.30;;;0.21;45.68;101203.63;4861241;29;20285;-63
2021/12/26 06:19:43;;;;;;;5.27;2.47;;;-2.50;54.20;;;0.21;45.20;101201.03;4860703;29;20208;-63
2021/12/26 06:22:10;;;;;;;5.10;2.50;;;-2.50;54.00;;;0.21;45.32;101204.44;4860749;29;20563;-63
2021/12/26 06:24:37;;;;;;;4.27;2.50;;;-2.50;54.10;;;0.22;45.50;101206.09;4860534;29;20705;-64
2021/12/26 06:27:05;;;;;;;3.40;2.63;;;-2.50;54.00;;;0.20;45.36;101207.13;4860461;29;20213;-63
2021/12/26 06:29:33;;;;;;;5.07;2.80;;;-2.50;53.50;;;0.16;44.80;101201.31;4860792;29;20202;-62
2021/12/26 06:32:00;;;;;;;3.87;3.10;;;-2.60;53.50;;;0.12;45.82;101204.19;4861584;29;20194;-63
2021/12/26 06:34:31;;;;;;;3.93;2.50;;;-2.60;53.70;;;0.13;45.59;101208.44;4861008;29;20219;-60
2021/12/26 06:36:58;;;;;;;5.33;2.77;;;-2.60;53.60;;;0.12;45.45;101205.00;4862058;29;20588;-63
2021/12/26 06:39:26;;;;;;;5.23;3.13;;;-2.60;53.70;;;0.15;45.23;101209.16;4862214;29;20210;-63
2021/12/26 06:41:53;;;;;;;4.00;2.80;;;-2.60;53.70;;;0.18;45.52;101214.16;4860746;29;20233;-61
2021/12/26 06:44:20;;;;;;;4.17;3.03;;;-2.60;53.50;;;0.21;45.25;101213.97;4860384;29;20213;-65
2021/12/26 06:46:48;;;;;;;4.67;3.00;;;-2.50;53.90;;;0.22;44.67;101202.66;4860579;29;20202;-63
2021/12/26 06:49:17;;;;;;;2.23;2.03;;;-2.50;53.00;;;0.23;45.02;101204.34;4861299;29;20200;-62
2021/12/26 06:51:46;;;;;;;3.57;2.63;;;-2.50;53.10;;;0.24;44.10;101193.06;4861358;29;20198;-61
2021/12/26 06:54:14;;;;;;;5.63;2.77;;;-2.50;53.00;;;0.26;44.05;101196.41;4861258;29;20246;-62
2021/12/26 06:56:42;;;;;;;3.60;2.47;;;-2.50;52.60;;;0.26;44.86;101196.41;4862196;29;20208;-62
2021/12/26 06:59:10;;;;;;;4.03;2.57;;;-2.50;52.50;;;0.27;44.12;101192.84;4863215;29;20205;-63
2021/12/26 07:01:37;;;;;;;3.40;2.60;;;-2.50;52.60;;;0.28;44.58;101189.34;4864187;29;20767;-64
2021/12/26 07:04:05;;;;;;;5.20;2.77;;;-2.50;52.50;;;0.27;44.08;101183.34;4864256;29;20225;-62
2021/12/26 07:06:32;;;;;;;4.60;2.80;;;-2.40;52.50;;;0.28;44.18;101181.59;4865278;29;20205;-62
2021/12/26 07:09:01;;;;;;;2.70;2.50;;;-2.40;52.30;;;0.28;44.20;101179.84;4865588;29;20198;-62
2021/12/26 07:11:28;;;;;;;5.13;2.80;;;-2.50;52.20;;;0.28;43.46;101176.41;4869700;29;20634;-62
2021/12/26 07:13:56;;;;;;;5.30;2.77;;;-2.50;52.10;;;0.26;43.37;101171.31;4868492;29;20591;-63
2021/12/26 07:16:25;;;;;;;6.03;2.77;;;-2.50;52.00;;;0.25;44.30;101181.78;4860619;29;20551;-63
2021/12/26 07:18:52;;;;;;;5.10;3.33;;;-2.50;51.80;;;0.22;43.47;101176.78;4860014;29;20191;-62
2021/12/26 07:21:20;;;;;;;5.83;2.77;;;-2.50;51.80;;;0.18;44.20;101177.94;4859007;29;20232;-63
2021/12/26 07:23:47;;;;;;;3.03;2.67;;;-2.60;51.80;;;0.17;44.17;101178.88;4859964;29;20219;-63
2021/12/26 07:26:16;;;;;;;4.80;2.30;;;-2.60;51.90;;;0.13;44.04;101179.97;4859941;29;20205;-63
2021/12/26 07:28:44;;;;;;;3.70;2.90;;;-2.70;51.60;;;0.05;43.62;101184.81;4859997;29;20198;-64
2021/12/26 07:31:11;;;;;;;5.50;2.70;;;-2.70;51.60;;;-0.01;43.15;101180.84;4860018;29;20226;-62
2021/12/26 07:33:40;;;;;;;3.53;2.70;;;-2.80;51.80;;;-0.03;43.60;101175.78;4859747;29;20245;-63
2021/12/26 07:36:08;;;;;;;4.03;2.63;;;-2.80;52.00;;;-0.04;44.48;101179.28;4860043;29;20288;-64
2021/12/26 07:38:37;;;;;;;5.47;2.57;;;-2.80;52.20;;;-0.06;44.38;101181.13;4860984;29;20294;-63
2021/12/26 07:41:22;;;;;;;5.83;2.63;;;-2.90;51.90;;;-0.11;43.17;101183.19;4863719;29;20674;-63
2021/12/26 07:43:50;;;;;;;2.90;2.67;;;-2.90;52.00;;;-0.16;43.41;101184.38;4862701;29;20312;-64
2021/12/26 07:46:17;;;;;;;4.50;2.60;;;-3.00;52.30;;;-0.15;44.61;101199.81;4863496;29;20206;-64
2021/12/26 07:48:45;;;;;;;3.37;2.60;;;-3.00;52.40;;;-0.15;43.48;101202.41;4863428;29;20194;-64
2021/12/26 07:51:12;;;;;;;3.87;2.50;;;-3.00;52.30;;;-0.15;43.70;101198.97;4863047;29;20214;-64
2021/12/26 07:53:40;;;;;;;3.50;2.63;;;-3.00;52.30;;;-0.17;43.07;101193.88;4862976;29;20222;-61
2021/12/26 07:56:07;;;;;;;4.03;3.20;;;-3.00;52.10;;;-0.23;43.97;101194.28;4863491;29;20205;-64
2021/12/26 07:58:36;;;;;;;4.10;2.77;;;-3.10;51.80;;;-0.28;43.41;101187.72;4862890;29;20194;-63
2021/12/26 08:01:04;;;;;;;4.13;2.47;;;-3.20;51.60;;;-0.35;42.86;101189.84;4862858;29;20197;-65
2021/12/26 08:03:34;;;;;;;5.10;3.07;;;-3.20;51.70;;;-0.40;43.57;101194.47;4862943;29;20606;-63
2021/12/26 08:06:02;;;;;;;3.80;2.80;;;-3.30;52.00;;;-0.41;44.12;101200.59;4863751;29;20731;-63
2021/12/26 08:08:30;;;;;;;4.33;2.97;;;-3.30;52.20;;;-0.40;44.44;101201.41;4862971;29;20571;-63
2021/12/26 08:10:58;;;;;;;4.20;2.80;;;-3.30;52.20;;;-0.39;43.66;101196.16;4863461;29;20220;-63
2021/12/26 08:13:27;;;;;;;4.20;2.83;;;-3.30;52.00;;;-0.37;43.32;101189.13;4861455;29;20237;-63
2021/12/26 08:15:55;;;;;;;5.53;3.70;;;-3.20;52.20;;;-0.35;43.29;101189.84;4862441;29;20214;-63
2021/12/26 08:18:22;;;;;;;4.30;2.57;;;-3.20;52.10;;;-0.33;43.51;101188.00;4862882;29;20205;-63
2021/12/26 08:20:50;;;;;;;4.80;2.70;;;-3.20;51.80;;;-0.33;43.47;101189.75;4862717;29;20196;-63
2021/12/26 08:23:17;;;;;;;4.77;3.20;;;-3.10;51.70;;;-0.36;43.48;101183.06;4862098;29;20305;-62
2021/12/26 08:25:45;;;;;;;5.43;2.80;;;-3.10;51.70;;;-0.33;43.02;101182.84;4861454;29;20220;-63
2021/12/26 08:28:14;;;;;;;5.33;3.03;;;-3.20;51.80;;;-0.30;42.98;101182.66;4862651;29;20198;-62
2021/12/26 08:30:42;;;;;;;4.17;2.87;;;-3.10;51.90;;;-0.29;43.41;101189.50;4863013;29;20212;-63
2021/12/26 08:33:11;;;;;;;2.80;2.17;;;-3.10;51.70;;;-0.27;43.13;101187.66;4861840;29;20682;-62
2021/12/26 08:35:41;;;;;;;4.23;2.77;;;-3.10;51.80;;;-0.25;44.05;101185.78;4862872;29;20201;-62
2021/12/26 08:38:09;;;;;;;3.40;2.97;;;-3.10;51.80;;;-0.22;42.75;101185.63;4863329;29;20204;-61
2021/12/26 08:40:37;;;;;;;5.47;2.80;;;-3.00;51.60;;;-0.17;43.63;101190.50;4862626;29;20197;-62
2021/12/26 08:43:04;;;;;;;4.70;3.00;;;-3.00;51.50;;;-0.15;43.34;101184.31;4862188;29;20268;-63
2021/12/26 08:45:32;;;;;;;3.23;2.50;;;-3.00;51.50;;;-0.15;43.39;101184.31;4862129;29;20206;-63
2021/12/26 08:48:00;;;;;;;4.43;3.20;;;-3.00;51.40;;;-0.14;43.56;101183.38;4862474;29;20683;-63
2021/12/26 08:50:30;;;;;;;2.67;2.43;;;-3.00;51.60;;;-0.13;42.59;101189.38;4861729;29;20222;-61
2021/12/26 08:52:57;;;;;;;5.40;3.33;;;-3.00;51.60;;;-0.12;42.89;101197.03;4862055;29;20216;-62
2021/12/26 08:55:25;;;;;;;4.27;2.73;;;-3.00;51.60;;;-0.12;43.46;101194.44;4862779;29;20197;-62
2021/12/26 08:57:54;;;;;;;5.00;3.27;;;-3.00;51.50;;;-0.11;43.49;101200.44;4860975;29;20285;-63
2021/12/26 09:00:23;;;;;;;4.63;3.00;;;-3.00;51.60;;;-0.11;43.38;101206.47;4862411;29;20199;-63
2021/12/26 09:02:51;;;;;;;4.43;3.27;;;-3.00;51.40;;;-0.12;43.54;101198.81;4861878;29;20229;-63
2021/12/26 09:05:19;;;;;;;3.80;3.07;;;-3.10;51.30;;;-0.13;42.92;101195.38;4862230;29;20743;-63
2021/12/26 09:07:48;;;;;;;7.03;3.03;;;-3.00;51.40;;;-0.13;42.44;101197.97;4861656;29;20529;-64
2021/12/26 09:10:15;;;;;;;3.30;2.30;;;-3.00;51.50;;;-0.12;42.51;101197.03;4861808;29;20193;-64
2021/12/26 09:12:44;;;;;;;4.77;3.00;;;-3.00;51.60;;;-0.09;43.14;101201.19;4861521;29;20205;-62
2021/12/26 09:15:13;;;;;;;6.10;3.40;;;-3.10;51.60;;;-0.08;43.60;101203.69;4861937;29;20583;-63
2021/12/26 09:17:43;;;;;;;4.03;2.83;;;-3.00;51.80;;;-0.04;42.89;101205.16;4861934;29;20201;-62
2021/12/26 09:20:11;;;;;;;4.57;2.73;;;-3.00;51.90;;;-0.02;43.73;101208.47;4861988;29;20208;-61
2021/12/26 09:22:40;;;;;;;3.20;2.60;;;-3.00;51.90;;;0.03;42.98;101199.56;4861825;29;20236;-64
2021/12/26 09:25:11;;;;;;;3.97;2.70;;;-3.00;51.80;;;0.02;43.52;101201.34;4847992;29;20207;-63
2021/12/26 09:27:38;;;;;;;3.37;2.90;;;-2.90;51.70;;;0.04;42.47;101198.66;4843538;29;20204;-64
2021/12/26 09:30:08;;;;;;;2.90;2.60;;;-2.90;51.60;;;0.05;43.41;101197.75;4843288;29;20203;-63
2021/12/26 09:32:36;;;;;;;7.80;3.20;;;-2.90;51.60;;;0.07;43.64;101190.72;4842980;29;20233;-61
2021/12/26 09:35:05;;;;;;;4.37;3.07;;;-2.80;51.80;;;0.09;43.13;101199.22;4843179;29;20205;-60
2021/12/26 09:37:33;;;;;;;5.10;3.30;;;-2.80;51.80;;;0.13;43.64;101195.50;4843203;29;20206;-63
2021/12/26 09:40:00;;;;;;;4.07;3.00;;;-2.80;51.80;;;0.16;43.14;101188.38;4844468;29;20229;-60
2021/12/26 09:42:29;;;;;;;4.07;3.50;;;-2.80;51.80;;;0.17;43.17;101178.88;4842869;29;20211;-59
2021/12/26 09:44:58;;;;;;;3.70;2.83;;;-2.80;51.60;;;0.21;43.26;101182.91;4843774;29;20281;-62
2021/12/26 09:47:28;;;;;;;4.07;2.90;;;-2.70;51.80;;;0.23;42.60;101176.72;4843152;29;20211;-64
2021/12/26 09:49:55;;;;;;;5.50;3.33;;;-2.70;51.70;;;0.28;42.75;101179.00;4842886;29;20230;-64
2021/12/26 09:52:22;;;;;;;4.17;3.00;;;-2.60;51.80;;;0.32;42.51;101170.94;4842651;29;20275;-62
2021/12/26 09:54:50;;;;;;;6.03;3.03;;;-2.60;51.80;;;0.38;42.65;101174.91;4843141;29;20199;-63
2021/12/26 09:57:17;;;;;;;4.27;3.17;;;-2.60;51.80;;;0.42;42.54;101171.19;4852286;29;20203;-64
2021/12/26 09:59:48;;;;;;;3.83;3.00;;;-2.50;51.80;;;0.48;42.44;101170.78;4861558;29;20646;-64
2021/12/26 10:02:18;;;;;;;4.00;3.20;;;-2.40;51.80;;;0.50;43.67;101174.91;4860361;29;20235;-64
2021/12/26 10:04:50;;;;;;;3.73;2.70;;;-2.40;51.70;;;0.56;42.95;101178.88;4861031;29;20214;-64
2021/12/26 10:07:24;;;;;;;6.10;3.30;;;-2.40;51.70;;;0.63;42.55;101174.97;4861320;29;20201;-63
2021/12/26 10:09:53;;;;;;;5.63;3.60;;;-2.30;51.80;;;0.69;43.03;101174.53;4861237;29;20202;-64
2021/12/26 10:12:22;;;;;;;6.50;3.10;;;-2.20;51.80;;;0.81;43.26;101172.94;4860905;29;20286;-66
2021/12/26 10:14:54;;;;;;;4.13;2.90;;;-2.10;51.70;;;1.22;42.65;101169.22;4860687;29;20567;-63
2021/12/26 10:17:26;;;;;;;5.70;3.03;;;-2.00;52.10;;;2.08;42.20;101164.88;4861325;29;20262;-62
2021/12/26 10:20:03;;;;;;;5.40;3.70;;;-1.70;52.50;;;2.53;41.45;101161.56;4861120;29;20199;-63
2021/12/26 10:22:30;;;;;;;6.27;3.20;;;-1.30;52.10;;;2.74;40.79;101159.97;4860726;29;20272;-64
2021/12/26 10:24:58;;;;;;;5.90;3.47;;;-0.90;51.80;;;2.83;40.33;101162.84;4860993;29;20193;-64
2021/12/26 10:27:30;;;;;;;3.73;3.10;;;-0.70;50.80;;;2.83;39.71;101155.03;4860898;29;20206;-64